createdAt,value
2023-02-13T00:00:02.435Z,98172.00
2023-02-13T00:02:29.950Z,98179.56
2023-02-13T00:04:57.429Z,98166.66
2023-02-13T00:07:24.916Z,98171.59
2023-02-13T00:09:52.379Z,98170.66
2023-02-13T00:12:19.926Z,98171.19
2023-02-13T00:14:47.409Z,98171.09
2023-02-13T00:17:16.389Z,98167.53
2023-02-13T00:19:43.954Z,98171.09
2023-02-13T00:22:11.695Z,98177.09
2023-02-13T00:24:39.240Z,98174.03
2023-02-13T00:27:06.698Z,98174.25
2023-02-13T00:29:34.187Z,98170.59
2023-02-13T00:32:02.389Z,98167.56
2023-02-13T00:34:31.323Z,98170.44
2023-02-13T00:36:58.781Z,98178.88
2023-02-13T00:39:26.408Z,98177.84
2023-02-13T00:41:53.898Z,98176.47
2023-02-13T00:44:21.413Z,98172.50
2023-02-13T00:46:48.926Z,98178.19
2023-02-13T00:49:16.418Z,98166.34
2023-02-13T00:51:45.391Z,98173.13
2023-02-13T00:54:12.882Z,98169.22
2023-02-13T00:56:40.516Z,98169.25
2023-02-13T00:59:08.589Z,98170.19
2023-02-13T01:01:36.100Z,98168.50
2023-02-13T01:04:04.013Z,98168.31
2023-02-13T01:06:31.522Z,98171.25
2023-02-13T01:09:00.384Z,98160.56
2023-02-13T01:11:27.925Z,98160.50
2023-02-13T01:13:55.401Z,98166.25
2023-02-13T01:16:23.000Z,98160.13
2023-02-13T01:18:50.547Z,98166.31
2023-02-13T01:21:19.960Z,98161.97
2023-02-13T01:23:47.971Z,98162.84
2023-02-13T01:26:19.542Z,98163.69
2023-02-13T01:28:47.288Z,98150.69
2023-02-13T01:31:15.126Z,98162.13
2023-02-13T01:33:42.698Z,98149.94
2023-02-13T01:36:12.360Z,98151.16
2023-02-13T01:38:40.031Z,98153.97
2023-02-13T01:41:08.304Z,98154.72
2023-02-13T01:43:50.059Z,98155.31
2023-02-13T01:46:20.326Z,98150.56
2023-02-13T01:48:50.488Z,98152.72
2023-02-13T01:51:21.280Z,98145.75
2023-02-13T01:53:53.542Z,98148.16
2023-02-13T01:56:26.478Z,98151.16
2023-02-13T01:58:59.221Z,98153.31
2023-02-13T02:01:27.773Z,98149.31
2023-02-13T02:03:59.634Z,98144.22
2023-02-13T02:06:29.302Z,98155.03
2023-02-13T02:09:01.687Z,98150.16
2023-02-13T02:11:36.463Z,98149.59
2023-02-13T02:14:05.505Z,98153.03
2023-02-13T02:16:33.840Z,98157.25
2023-02-13T02:19:03.190Z,98148.38
2023-02-13T02:21:54.205Z,98150.53
2023-02-13T02:24:55.363Z,98152.16
2023-02-13T02:28:10.678Z,98142.38
2023-02-13T02:31:32.360Z,98144.00
2023-02-13T02:34:15.886Z,98148.25
2023-02-13T02:36:59.817Z,98130.19
2023-02-13T02:39:37.166Z,98127.41
2023-02-13T02:42:16.594Z,98127.53
2023-02-13T02:44:52.220Z,98125.00
2023-02-13T02:47:42.717Z,98126.97
2023-02-13T02:50:24.719Z,98122.59
2023-02-13T02:53:04.240Z,98126.44
2023-02-13T02:55:39.821Z,98124.66
2023-02-13T02:58:32.493Z,98122.72
2023-02-13T03:01:19.613Z,98124.56
2023-02-13T03:04:06.173Z,98127.75
2023-02-13T03:06:41.202Z,98123.22
2023-02-13T03:09:31.429Z,98121.53
2023-02-13T03:12:17.074Z,98119.19
2023-02-13T03:14:45.208Z,98123.69
2023-02-13T03:17:33.679Z,98128.56
2023-02-13T03:20:30.847Z,98130.38
2023-02-13T03:23:14.857Z,98125.50
2023-02-13T03:26:21.666Z,98132.72
2023-02-13T03:29:15.769Z,98134.00
2023-02-13T03:31:53.889Z,98133.00
2023-02-13T03:34:23.929Z,98126.25
2023-02-13T03:37:17.769Z,98129.53
2023-02-13T03:39:53.507Z,98127.28
2023-02-13T03:42:28.064Z,98129.44
2023-02-13T03:45:17.527Z,98126.19
2023-02-13T03:47:46.361Z,98129.19
2023-02-13T03:50:14.975Z,98130.44
2023-02-13T03:52:49.348Z,98142.09
2023-02-13T03:55:37.720Z,98137.63
2023-02-13T03:58:27.279Z,98132.94
2023-02-13T04:00:59.719Z,98122.50
2023-02-13T04:03:32.733Z,98136.97
2023-02-13T04:06:05.663Z,98127.38
2023-02-13T04:08:33.306Z,98133.91
2023-02-13T04:11:09.677Z,98132.69
2023-02-13T04:13:43.734Z,98136.00
2023-02-13T04:16:16.244Z,98129.13
2023-02-13T04:18:45.478Z,98129.22
2023-02-13T04:21:12.929Z,98121.13
2023-02-13T04:23:40.398Z,98125.19
2023-02-13T04:26:17.434Z,98125.81
2023-02-13T04:28:44.932Z,98120.25
2023-02-13T04:31:12.559Z,98129.53
2023-02-13T04:33:40.129Z,98125.84
2023-02-13T04:36:08.308Z,98127.97
2023-02-13T04:38:35.753Z,98128.59
2023-02-13T04:41:03.289Z,98131.00
2023-02-13T04:43:32.056Z,98128.59
2023-02-13T04:45:59.529Z,98125.41
2023-02-13T04:48:27.166Z,98124.41
2023-02-13T04:50:54.657Z,98124.22
2023-02-13T04:53:22.130Z,98121.88
2023-02-13T04:55:49.633Z,98117.81
2023-02-13T04:58:17.093Z,98113.41
2023-02-13T05:00:45.968Z,98116.47
2023-02-13T05:03:14.511Z,98109.94
2023-02-13T05:05:42.250Z,98118.34
2023-02-13T05:08:10.116Z,98110.88
2023-02-13T05:10:38.136Z,98114.94
2023-02-13T05:13:05.670Z,98115.97
2023-02-13T05:15:33.534Z,98117.19
2023-02-13T05:18:02.345Z,98127.22
2023-02-13T05:20:29.868Z,98123.59
2023-02-13T05:23:14.764Z,98114.09
2023-02-13T05:25:43.709Z,98127.38
2023-02-13T05:28:31.381Z,98131.22
2023-02-13T05:30:59.356Z,98137.75
2023-02-13T05:33:28.496Z,98140.91
2023-02-13T05:35:55.984Z,98138.56
2023-02-13T05:38:23.457Z,98133.97
2023-02-13T05:40:50.933Z,98136.22
2023-02-13T05:43:18.469Z,98136.88
2023-02-13T05:45:46.042Z,98131.63
2023-02-13T05:48:13.550Z,98141.28
2023-02-13T05:50:42.349Z,98144.16
2023-02-13T05:53:09.856Z,98143.69
2023-02-13T05:55:37.314Z,98139.59
2023-02-13T05:58:04.793Z,98142.31
2023-02-13T06:00:32.268Z,98150.81
2023-02-13T06:02:59.773Z,98145.88
2023-02-13T06:05:27.397Z,98142.44
2023-02-13T06:07:56.211Z,98151.25
2023-02-13T06:10:23.689Z,98145.63
2023-02-13T06:12:51.171Z,98159.31
2023-02-13T06:15:18.937Z,98155.06
2023-02-13T06:17:46.434Z,98164.91
2023-02-13T06:20:14.091Z,98167.31
2023-02-13T06:22:41.549Z,98171.56
2023-02-13T06:25:10.413Z,98167.72
2023-02-13T06:27:37.898Z,98164.75
2023-02-13T06:30:05.871Z,98171.44
2023-02-13T06:32:33.346Z,98178.25
2023-02-13T06:35:00.823Z,98178.16
2023-02-13T06:37:28.530Z,98177.44
2023-02-13T06:39:56.018Z,98185.25
2023-02-13T06:42:24.843Z,98177.88
2023-02-13T06:44:52.336Z,98179.13
2023-02-13T06:47:19.797Z,98181.50
2023-02-13T06:49:47.275Z,98177.16
2023-02-13T06:52:14.758Z,98184.97
2023-02-13T06:54:47.809Z,98188.88
2023-02-13T06:57:16.049Z,98192.09
2023-02-13T06:59:44.908Z,98186.69
2023-02-13T07:02:13.369Z,98189.72
2023-02-13T07:04:41.050Z,98186.47
2023-02-13T07:07:08.526Z,98189.00
2023-02-13T07:09:36.002Z,98189.16
2023-02-13T07:12:04.660Z,98198.88
2023-02-13T07:14:32.143Z,98195.50
2023-02-13T07:17:01.020Z,98198.53
2023-02-13T07:19:28.465Z,98197.22
2023-02-13T07:21:55.910Z,98196.78
2023-02-13T07:24:23.401Z,98203.50
2023-02-13T07:26:50.890Z,98203.50
2023-02-13T07:29:18.363Z,98211.31
2023-02-13T07:31:45.843Z,98206.94
2023-02-13T07:34:14.768Z,98202.72
2023-02-13T07:36:42.200Z,98205.47
2023-02-13T07:39:09.886Z,98200.34
2023-02-13T07:41:37.365Z,98204.91
2023-02-13T07:44:04.936Z,98207.72
2023-02-13T07:46:32.392Z,98202.72
2023-02-13T07:48:59.837Z,98195.34
2023-02-13T07:51:29.103Z,98206.88
2023-02-13T07:53:57.705Z,98208.44
2023-02-13T07:56:25.318Z,98198.66
2023-02-13T07:58:52.772Z,98198.97
2023-02-13T08:01:20.665Z,98195.63
2023-02-13T08:03:51.682Z,98198.84
2023-02-13T08:06:20.221Z,98199.72
2023-02-13T08:08:49.028Z,98204.53
2023-02-13T08:11:42.876Z,98207.47
2023-02-13T08:14:10.380Z,98194.25
2023-02-13T08:16:37.873Z,98194.81
2023-02-13T08:19:05.338Z,98201.38
2023-02-13T08:21:32.930Z,98193.59
2023-02-13T08:24:01.890Z,98199.22
2023-02-13T08:26:31.892Z,98201.13
2023-02-13T08:28:59.484Z,98211.00
2023-02-13T08:31:27.393Z,98209.19
2023-02-13T08:33:54.988Z,98206.94
2023-02-13T08:36:22.440Z,98206.03
2023-02-13T08:38:50.285Z,98206.88
2023-02-13T08:41:20.868Z,98205.53
2023-02-13T08:43:48.741Z,98211.78
2023-02-13T08:46:16.350Z,98209.63
2023-02-13T08:48:44.069Z,98210.16
2023-02-13T08:51:13.704Z,98217.50
2023-02-13T08:53:42.281Z,98217.72
2023-02-13T08:56:10.572Z,98218.34
2023-02-13T08:58:39.651Z,98219.94
2023-02-13T09:01:08.728Z,98224.00
2023-02-13T09:03:37.152Z,98220.06
2023-02-13T09:06:05.147Z,98220.81
2023-02-13T09:08:32.730Z,98218.78
2023-02-13T09:11:02.331Z,98212.22
2023-02-13T09:13:30.409Z,98212.97
2023-02-13T09:16:01.475Z,98214.16
2023-02-13T09:18:29.735Z,98219.88
2023-02-13T09:21:01.309Z,98215.16
2023-02-13T09:23:32.322Z,98224.13
2023-02-13T09:26:01.626Z,98222.19
2023-02-13T09:28:29.375Z,98208.28
2023-02-13T09:30:57.030Z,98206.97
2023-02-13T09:33:26.749Z,98206.88
2023-02-13T09:35:54.193Z,98212.84
2023-02-13T09:38:21.638Z,98209.72
2023-02-13T09:40:52.444Z,98207.22
2023-02-13T09:43:28.519Z,98208.16
2023-02-13T09:45:59.913Z,98207.69
2023-02-13T09:48:31.971Z,98209.16
2023-02-13T09:51:00.376Z,98209.94
2023-02-13T09:53:33.311Z,98216.56
2023-02-13T09:56:10.087Z,98216.44
2023-02-13T09:58:44.132Z,98214.09
2023-02-13T10:01:21.096Z,98207.66
2023-02-13T10:03:58.558Z,98207.22
2023-02-13T10:06:31.810Z,98207.13
2023-02-13T10:09:08.972Z,98206.88
2023-02-13T10:11:54.418Z,98208.66
2023-02-13T10:14:28.092Z,98210.44
2023-02-13T10:17:00.859Z,98211.84
2023-02-13T10:19:36.864Z,98211.72
2023-02-13T10:22:08.529Z,98212.69
2023-02-13T10:24:41.038Z,98219.59
2023-02-13T10:27:20.817Z,98217.94
2023-02-13T10:30:09.381Z,98218.66
2023-02-13T10:32:43.956Z,98216.72
2023-02-13T10:35:21.731Z,98209.16
2023-02-13T10:37:51.982Z,98213.44
2023-02-13T10:40:20.571Z,98211.72
2023-02-13T10:42:57.519Z,98210.94
2023-02-13T10:45:40.230Z,98216.19
2023-02-13T10:48:20.605Z,98213.53
2023-02-13T10:51:01.710Z,98209.97
2023-02-13T10:53:44.269Z,98207.56
2023-02-13T10:56:23.397Z,98206.47
2023-02-13T10:59:05.815Z,98205.97
2023-02-13T11:01:40.655Z,98208.41
2023-02-13T11:04:10.702Z,98198.50
2023-02-13T11:06:44.069Z,98203.06
2023-02-13T11:09:13.343Z,98199.47
2023-02-13T11:11:43.262Z,98200.31
2023-02-13T11:14:16.247Z,98199.50
2023-02-13T11:16:55.133Z,98189.63
2023-02-13T11:19:27.733Z,98191.91
2023-02-13T11:21:59.978Z,98198.22
2023-02-13T11:24:29.441Z,98191.53
2023-02-13T11:27:01.726Z,98198.31
2023-02-13T11:29:31.441Z,98200.91
2023-02-13T11:32:05.965Z,98203.63
2023-02-13T11:34:35.128Z,98196.09
2023-02-13T11:37:17.832Z,98207.50
2023-02-13T11:39:46.876Z,98204.19
2023-02-13T11:42:16.456Z,98203.69
2023-02-13T11:44:50.285Z,98198.41
2023-02-13T11:47:18.041Z,98203.16
2023-02-13T11:49:48.077Z,98198.91
2023-02-13T11:52:28.615Z,98199.44
2023-02-13T11:54:58.852Z,98205.09
2023-02-13T11:57:31.317Z,98203.94
2023-02-13T12:00:00.150Z,98201.50
2023-02-13T12:02:29.423Z,98208.41
2023-02-13T12:05:16.337Z,98202.25
2023-02-13T12:07:46.019Z,98198.69
2023-02-13T12:10:22.217Z,98196.16
2023-02-13T12:12:55.642Z,98199.81
2023-02-13T12:15:25.556Z,98196.84
2023-02-13T12:18:03.822Z,98190.84
2023-02-13T12:20:41.051Z,98192.75
2023-02-13T12:23:19.616Z,98194.28
2023-02-13T12:26:00.138Z,98193.00
2023-02-13T12:28:42.603Z,98174.47
2023-02-13T12:31:35.586Z,98178.13
2023-02-13T12:34:24.829Z,98168.91
2023-02-13T12:37:04.624Z,98175.75
2023-02-13T12:39:36.184Z,98172.78
2023-02-13T12:42:20.812Z,98163.78
2023-02-13T12:45:09.652Z,98167.06
2023-02-13T12:47:46.343Z,98166.41
2023-02-13T12:50:38.437Z,98159.94
2023-02-13T12:53:21.139Z,98151.28
2023-02-13T12:56:05.777Z,98157.34
2023-02-13T12:58:46.568Z,98154.16
2023-02-13T13:01:26.972Z,98154.25
2023-02-13T13:04:09.370Z,98149.94
2023-02-13T13:06:54.908Z,98148.19
2023-02-13T13:09:58.280Z,98151.22
2023-02-13T13:12:43.730Z,98149.09
2023-02-13T13:15:19.900Z,98153.06
2023-02-13T13:17:58.935Z,98139.56
2023-02-13T13:20:44.268Z,98137.63
2023-02-13T13:23:17.714Z,98135.84
2023-02-13T13:25:51.983Z,98147.84
2023-02-13T13:28:24.566Z,98136.34
2023-02-13T13:30:54.037Z,98145.59
2023-02-13T13:33:23.273Z,98140.59
2023-02-13T13:35:59.686Z,98138.84
2023-02-13T13:38:51.673Z,98144.34
2023-02-13T13:41:29.493Z,98136.91
2023-02-13T13:44:20.849Z,98140.50
2023-02-13T13:46:56.680Z,98145.03
2023-02-13T13:49:33.153Z,98141.72
2023-02-13T13:52:12.545Z,98134.41
2023-02-13T13:54:40.034Z,98135.28
2023-02-13T13:57:09.268Z,98131.81
2023-02-13T13:59:59.923Z,98131.53
2023-02-13T14:02:38.517Z,98139.63
2023-02-13T14:05:19.589Z,98137.19
2023-02-13T14:07:48.646Z,98145.22
2023-02-13T14:11:03.202Z,98136.78
2023-02-13T14:13:34.064Z,98136.44
2023-02-13T14:16:03.560Z,98135.72
2023-02-13T14:18:32.238Z,98133.03
2023-02-13T14:21:01.923Z,98141.88
2023-02-13T14:23:34.597Z,98136.56
2023-02-13T14:26:13.855Z,98134.47
2023-02-13T14:28:43.307Z,98132.59
2023-02-13T14:31:23.297Z,98136.28
2023-02-13T14:33:57.102Z,98133.84
2023-02-13T14:36:32.192Z,98139.19
2023-02-13T14:39:02.275Z,98136.03
2023-02-13T14:41:44.338Z,98129.16
2023-02-13T14:44:19.017Z,98132.69
2023-02-13T14:46:49.269Z,98129.31
2023-02-13T14:49:20.246Z,98134.16
2023-02-13T14:51:51.134Z,98145.81
2023-02-13T14:54:26.836Z,98136.94
2023-02-13T14:57:00.378Z,98134.47
2023-02-13T14:59:32.641Z,98134.66
2023-02-13T15:02:10.104Z,98123.00
2023-02-13T15:04:42.726Z,98119.28
2023-02-13T15:07:16.602Z,98120.59
2023-02-13T15:09:49.237Z,98115.94
2023-02-13T15:12:31.305Z,98118.59
2023-02-13T15:15:01.221Z,98126.22
2023-02-13T15:17:32.765Z,98130.25
2023-02-13T15:20:09.785Z,98130.78
2023-02-13T15:22:39.429Z,98128.28
2023-02-13T15:25:09.270Z,98114.75
2023-02-13T15:27:41.614Z,98124.66
2023-02-13T15:30:21.771Z,98119.53
2023-02-13T15:32:56.840Z,98114.91
2023-02-13T15:35:26.868Z,98121.59
2023-02-13T15:37:54.833Z,98119.28
2023-02-13T15:40:25.836Z,98129.47
2023-02-13T15:42:54.177Z,98124.84
2023-02-13T15:45:23.733Z,98137.84
2023-02-13T15:47:51.975Z,98131.19
2023-02-13T15:50:25.356Z,98132.56
2023-02-13T15:52:53.955Z,98131.50
2023-02-13T15:55:24.294Z,98127.72
2023-02-13T15:57:53.046Z,98120.91
2023-02-13T16:00:26.228Z,98128.31
2023-02-13T16:02:55.864Z,98132.75
2023-02-13T16:05:38.893Z,98130.81
2023-02-13T16:08:28.231Z,98132.06
2023-02-13T16:11:21.961Z,98131.56
2023-02-13T16:14:07.135Z,98120.72
2023-02-13T16:16:37.349Z,98124.53
2023-02-13T16:19:05.241Z,98117.25
2023-02-13T16:21:35.846Z,98118.50
2023-02-13T16:24:07.492Z,98123.63
2023-02-13T16:26:36.326Z,98110.66
2023-02-13T16:29:03.935Z,98112.59
2023-02-13T16:31:31.515Z,98113.09
2023-02-13T16:33:58.989Z,98116.34
2023-02-13T16:36:29.820Z,98124.72
2023-02-13T16:38:58.617Z,98124.91
2023-02-13T16:41:34.054Z,98127.47
2023-02-13T16:44:02.359Z,98130.47
2023-02-13T16:46:37.248Z,98123.78
2023-02-13T16:49:17.229Z,98128.91
2023-02-13T16:51:47.760Z,98138.31
2023-02-13T16:54:24.016Z,98146.97
2023-02-13T16:56:53.620Z,98139.91
2023-02-13T16:59:28.893Z,98134.06
2023-02-13T17:02:15.431Z,98139.81
2023-02-13T17:04:48.002Z,98140.66
2023-02-13T17:07:18.769Z,98142.75
2023-02-13T17:09:53.658Z,98134.81
2023-02-13T17:12:21.615Z,98141.84
2023-02-13T17:14:49.118Z,98143.63
2023-02-13T17:17:18.922Z,98143.53
2023-02-13T17:19:47.006Z,98148.22
2023-02-13T17:22:23.442Z,98154.81
2023-02-13T17:24:52.343Z,98155.22
2023-02-13T17:27:22.425Z,98151.59
2023-02-13T17:29:50.239Z,98158.72
2023-02-13T17:32:20.250Z,98151.81
2023-02-13T17:34:47.756Z,98156.75
2023-02-13T17:37:19.376Z,98157.03
2023-02-13T17:39:47.935Z,98157.66
2023-02-13T17:42:21.010Z,98159.84
2023-02-13T17:44:48.498Z,98161.44
2023-02-13T17:47:15.981Z,98155.72
2023-02-13T17:49:43.485Z,98157.31
2023-02-13T17:52:16.688Z,98166.66
2023-02-13T17:54:45.189Z,98161.66
2023-02-13T17:57:13.413Z,98156.56
2023-02-13T17:59:42.649Z,98144.38
2023-02-13T18:02:19.195Z,98144.56
2023-02-13T18:04:47.285Z,98141.19
2023-02-13T18:07:16.653Z,98137.94
2023-02-13T18:09:44.197Z,98144.00
2023-02-13T18:12:14.819Z,98144.66
2023-02-13T18:14:43.821Z,98146.47
2023-02-13T18:17:11.767Z,98143.19
2023-02-13T18:19:39.996Z,98139.97
2023-02-13T18:22:08.761Z,98134.69
2023-02-13T18:24:37.724Z,98136.00
2023-02-13T18:27:07.333Z,98141.16
2023-02-13T18:29:36.171Z,98136.53
2023-02-13T18:32:08.091Z,98143.59
2023-02-13T18:34:37.766Z,98144.09
2023-02-13T18:37:06.952Z,98140.34
2023-02-13T18:39:34.651Z,98135.06
2023-02-13T18:42:02.493Z,98130.72
2023-02-13T18:44:29.977Z,98137.72
2023-02-13T18:46:57.766Z,98140.81
2023-02-13T18:49:26.952Z,98140.91
2023-02-13T18:51:54.478Z,98143.53
2023-02-13T18:54:22.164Z,98146.91
2023-02-13T18:56:49.966Z,98148.44
2023-02-13T18:59:18.485Z,98146.22
2023-02-13T19:01:46.289Z,98150.84
2023-02-13T19:04:13.896Z,98147.78
2023-02-13T19:06:44.016Z,98149.84
2023-02-13T19:09:11.996Z,98154.34
2023-02-13T19:11:40.752Z,98148.69
2023-02-13T19:14:08.585Z,98144.28
2023-02-13T19:16:36.795Z,98147.88
2023-02-13T19:19:06.188Z,98152.00
2023-02-13T19:21:36.166Z,98139.41
2023-02-13T19:24:07.673Z,98136.47
2023-02-13T19:26:35.697Z,98145.38
2023-02-13T19:29:03.238Z,98149.75
2023-02-13T19:31:32.629Z,98142.59
2023-02-13T19:34:01.348Z,98141.53
2023-02-13T19:36:29.917Z,98136.03
2023-02-13T19:38:59.544Z,98140.94
2023-02-13T19:41:29.020Z,98132.38
2023-02-13T19:43:57.193Z,98139.53
2023-02-13T19:46:27.727Z,98139.56
2023-02-13T19:48:55.413Z,98139.44
2023-02-13T19:51:25.118Z,98140.06
2023-02-13T19:53:56.570Z,98131.47
2023-02-13T19:56:24.439Z,98144.03
2023-02-13T19:58:53.259Z,98139.09
2023-02-13T20:01:22.610Z,98139.28
2023-02-13T20:03:50.207Z,98139.84
2023-02-13T20:06:19.832Z,98139.34
2023-02-13T20:08:47.733Z,98145.06
2023-02-13T20:11:17.036Z,98142.94
2023-02-13T20:13:44.789Z,98141.59
2023-02-13T20:16:16.339Z,98136.00
2023-02-13T20:18:44.126Z,98138.94
2023-02-13T20:21:13.814Z,98143.31
2023-02-13T20:23:41.992Z,98142.44
2023-02-13T20:26:13.658Z,98145.44
2023-02-13T20:28:42.471Z,98147.72
2023-02-13T20:31:11.646Z,98137.22
2023-02-13T20:33:41.183Z,98134.28
2023-02-13T20:36:10.360Z,98132.91
2023-02-13T20:38:37.872Z,98126.88
2023-02-13T20:41:09.567Z,98126.19
2023-02-13T20:43:37.993Z,98121.28
2023-02-13T20:46:05.930Z,98111.06
2023-02-13T20:48:35.848Z,98111.91
2023-02-13T20:51:06.898Z,98112.09
2023-02-13T20:53:34.855Z,98113.22
2023-02-13T20:56:04.743Z,98098.16
2023-02-13T20:58:32.621Z,98099.63
2023-02-13T21:01:01.007Z,98105.25
2023-02-13T21:03:28.774Z,98101.06
2023-02-13T21:05:56.299Z,98103.75
2023-02-13T21:08:25.111Z,98111.84
2023-02-13T21:10:52.575Z,98108.50
2023-02-13T21:13:20.113Z,98107.81
2023-02-13T21:15:50.487Z,98106.78
2023-02-13T21:18:19.800Z,98108.06
2023-02-13T21:20:49.805Z,98094.66
2023-02-13T21:23:17.281Z,98094.22
2023-02-13T21:25:46.135Z,98093.34
2023-02-13T21:28:13.626Z,98097.63
2023-02-13T21:30:41.152Z,98101.47
2023-02-13T21:33:08.641Z,98092.75
2023-02-13T21:35:36.190Z,98101.06
2023-02-13T21:38:03.643Z,98100.13
2023-02-13T21:40:31.131Z,98110.53
2023-02-13T21:42:59.950Z,98106.69
2023-02-13T21:45:27.519Z,98099.34
2023-02-13T21:47:55.742Z,98101.88
2023-02-13T21:50:23.601Z,98103.91
2023-02-13T21:52:51.100Z,98102.75
2023-02-13T21:55:18.757Z,98101.16
2023-02-13T21:57:46.230Z,98094.66
2023-02-13T22:00:16.575Z,98098.09
2023-02-13T22:02:44.069Z,98098.75
2023-02-13T22:05:11.584Z,98106.53
2023-02-13T22:07:53.013Z,98102.69
2023-02-13T22:10:20.477Z,98099.09
2023-02-13T22:12:51.947Z,98099.44
2023-02-13T22:15:20.871Z,98091.94
2023-02-13T22:17:48.437Z,98087.06
2023-02-13T22:20:16.085Z,98098.63
2023-02-13T22:22:43.679Z,98098.97
2023-02-13T22:25:11.391Z,98095.50
2023-02-13T22:27:38.874Z,98094.25
2023-02-13T22:30:08.931Z,98092.50
2023-02-13T22:32:39.714Z,98089.56
2023-02-13T22:35:09.447Z,98090.69
2023-02-13T22:37:37.486Z,98089.09
2023-02-13T22:40:06.530Z,98099.19
2023-02-13T22:42:33.986Z,98096.13
2023-02-13T22:45:01.459Z,98084.53
2023-02-13T22:47:30.097Z,98089.13
2023-02-13T22:49:58.903Z,98088.75
2023-02-13T22:52:26.337Z,98091.09
2023-02-13T22:54:53.791Z,98090.53
2023-02-13T22:57:21.227Z,98095.03
2023-02-13T22:59:48.686Z,98086.41
2023-02-13T23:02:16.136Z,98091.50
2023-02-13T23:04:43.714Z,98085.56
2023-02-13T23:07:15.036Z,98091.53
2023-02-13T23:09:42.480Z,98090.63
2023-02-13T23:12:27.545Z,98088.00
2023-02-13T23:14:56.665Z,98085.31
2023-02-13T23:17:42.006Z,98084.31
2023-02-13T23:20:10.814Z,98084.69
2023-02-13T23:22:39.657Z,98094.28
2023-02-13T23:25:07.892Z,98095.53
2023-02-13T23:27:36.856Z,98088.47
2023-02-13T23:30:05.921Z,98101.78
2023-02-13T23:32:33.477Z,98101.22
2023-02-13T23:35:01.099Z,98104.72
2023-02-13T23:37:28.714Z,98095.84
2023-02-13T23:39:57.546Z,98087.94
2023-02-13T23:42:25.008Z,98091.88
2023-02-13T23:44:52.478Z,98090.34
2023-02-13T23:47:19.957Z,98101.13
2023-02-13T23:49:47.438Z,98096.47
2023-02-13T23:52:14.906Z,98090.53
2023-02-13T23:54:42.385Z,98082.31
2023-02-13T23:57:11.824Z,98084.47
2023-02-13T23:59:39.332Z,98081.34
